Time;durP1;ratioP1;P1;durP2;ratioP2;P2;SDS_P1;SDS_P2;PMS_P1;PMS_P2;Temp;Humidity;BMP_temperature;BMP_pressure;BME280_temperature;BME280_humidity;BME280_pressure;Samples;Min_cycle;Max_cycle;Signal;HPM_P1;HPM_P2
2021/09/30 00:00:10;;;;;;;;;;;;;;;14.32;96.30;100313.00;6893407;20;18919;-44
2021/09/30 00:02:38;;;;;;;;;;;;;;;14.32;97.28;100313.88;6896140;20;8692;-46
2021/09/30 00:05:08;;;;;;;;;;;;;;;14.34;96.90;100322.75;6895802;20;7588;-43
2021/09/30 00:07:36;;;;;;;;;;;;;;;14.25;96.85;100324.25;6891461;20;18965;-44
2021/09/30 00:10:06;;;;;;;;;;;;;;;14.17;96.46;100323.03;6894036;20;19307;-45
2021/09/30 00:12:39;;;;;;;;;;;;;;;14.37;96.96;100322.53;6894704;20;18036;-43
2021/09/30 00:15:12;;;;;;;;;;;;;;;14.17;96.59;100321.19;6892458;20;7645;-44
2021/09/30 00:18:07;;;;;;;;;;;;;;;14.14;97.59;100321.41;6893996;20;18761;-42
2021/09/30 00:40:27;;;;;;;;;;;;;;;14.02;94.93;100322.19;6891396;20;7593;-49
2021/09/30 00:48:40;;;;;;;;;;;;;;;14.10;93.71;100316.28;6893849;20;7600;-48
2021/09/30 01:23:13;;;;;;;;;;;;;;;13.80;92.75;100311.94;6889349;20;20983;-42
2021/09/30 01:40:14;;;;;;;;;;;;;;;13.77;92.70;100323.81;6891476;20;7506;-43
2021/09/30 02:19:09;;;;;;;;;;;;;;;13.43;91.76;100343.09;6884800;20;19880;-43
2021/09/30 02:26:13;;;;;;;;;;;;;;;13.28;92.19;100359.28;6889200;20;20590;-41
2021/09/30 02:59:39;;;;;;;;;;;;;;;13.30;93.87;100368.16;6891652;20;7526;-43
2021/09/30 03:02:07;;;;;;;;;;;;;;;13.30;93.36;100362.75;6890153;20;7522;-43
2021/09/30 03:04:37;;;;;;;;;;;;;;;13.25;93.22;100362.13;6896353;20;7542;-44
2021/09/30 03:07:07;;;;;;;;;;;;;;;13.26;92.56;100363.00;6893339;20;19920;-42
2021/09/30 03:09:40;;;;;;;;;;;;;;;13.44;94.15;100369.13;6893299;20;16969;-45
2021/09/30 03:12:22;;;;;;;;;;;;;;;13.31;93.49;100364.47;6894517;20;17479;-43
2021/09/30 03:17:49;;;;;;;;;;;;;;;13.30;94.33;100367.28;6893649;20;7533;-46
2021/09/30 03:20:40;;;;;;;;;;;;;;;13.36;94.34;100373.16;6894950;20;7663;-44
2021/09/30 03:23:18;;;;;;;;;;;;;;;13.19;95.12;100375.97;6892227;20;7522;-49
2021/09/30 03:25:48;;;;;;;;;;;;;;;13.13;96.08;100376.34;6894406;20;7518;-45
2021/09/30 03:28:19;;;;;;;;;;;;;;;13.29;96.60;100382.56;6891095;20;18156;-45
2021/09/30 03:30:47;;;;;;;;;;;;;;;12.95;96.54;100379.22;6893499;20;18609;-47
2021/09/30 03:33:15;;;;;;;;;;;;;;;13.42;96.43;100382.69;6893511;20;15859;-45
2021/09/30 03:35:43;;;;;;;;;;;;;;;13.05;97.54;100381.34;6892847;20;19800;-46
2021/09/30 03:38:10;;;;;;;;;;;;;;;13.13;96.82;100382.63;6887994;20;7601;-48
2021/09/30 03:40:38;;;;;;;;;;;;;;;12.98;98.75;100388.97;6892764;20;19113;-44
2021/09/30 03:43:07;;;;;;;;;;;;;;;12.95;99.51;100391.81;6832864;20;15196;-46
2021/09/30 03:46:43;;;;;;;;;;;;;;;13.06;98.61;100392.06;6828613;20;58696;-45
2021/09/30 03:49:13;;;;;;;;;;;;;;;12.82;99.98;100386.31;6919798;20;7628;-48
2021/09/30 03:52:06;;;;;;;;;;;;;;;12.90;100.00;100389.41;6901895;20;15046;-48
2021/09/30 03:55:26;;;;;;;;;;;;;;;12.72;100.00;100385.13;6916567;20;18588;-47
2021/09/30 03:57:38;;;;;;;;;;;;;;;12.63;100.00;100381.13;6916917;20;18799;-45
2021/09/30 04:00:06;;;;;;;;;;;;;;;12.61;100.00;100383.06;6922526;20;7519;-46
2021/09/30 04:02:34;;;;;;;;;;;;;;;12.52;100.00;100387.16;6922677;20;7596;-43
2021/09/30 04:05:02;;;;;;;;;;;;;;;12.42;100.00;100387.78;6924168;20;7553;-44
2021/09/30 04:07:29;;;;;;;;;;;;;;;12.35;100.00;100389.06;6923006;20;7526;-44
2021/09/30 04:09:57;;;;;;;;;;;;;;;12.51;100.00;100389.94;6923129;20;7510;-43
2021/09/30 04:12:24;;;;;;;;;;;;;;;12.24;100.00;100392.38;6921710;20;18795;-48
2021/09/30 04:14:52;;;;;;;;;;;;;;;12.74;100.00;100396.66;6922909;20;7568;-45
2021/09/30 04:17:20;;;;;;;;;;;;;;;12.32;100.00;100400.03;6922228;20;7518;-44
2021/09/30 04:19:47;;;;;;;;;;;;;;;12.22;100.00;100394.31;6924268;20;7555;-44
2021/09/30 04:22:15;;;;;;;;;;;;;;;12.17;100.00;100397.28;6921474;20;18254;-44
2021/09/30 04:24:45;;;;;;;;;;;;;;;12.18;100.00;100399.00;6922977;20;7628;-45
2021/09/30 04:27:12;;;;;;;;;;;;;;;11.93;100.00;100402.22;6921072;20;7999;-44
2021/09/30 04:29:40;;;;;;;;;;;;;;;11.89;100.00;100403.31;6923508;20;17670;-43
2021/09/30 04:32:08;;;;;;;;;;;;;;;12.16;100.00;100408.13;6922845;20;7522;-49
2021/09/30 04:34:35;;;;;;;;;;;;;;;12.12;100.00;100403.88;6923915;20;7518;-45
2021/09/30 04:37:03;;;;;;;;;;;;;;;12.00;100.00;100400.91;6922335;20;8107;-43
2021/09/30 04:39:31;;;;;;;;;;;;;;;12.03;100.00;100403.44;6921961;20;8018;-45
2021/09/30 04:41:59;;;;;;;;;;;;;;;12.22;100.00;100405.97;6913193;20;19051;-44
2021/09/30 04:44:27;;;;;;;;;;;;;;;12.05;100.00;100404.19;6915826;20;7677;-43
2021/09/30 04:46:55;;;;;;;;;;;;;;;12.06;100.00;100411.34;6921384;20;15487;-46
2021/09/30 04:49:22;;;;;;;;;;;;;;;11.98;100.00;100404.63;6924158;20;7522;-50
2021/09/30 04:51:50;;;;;;;;;;;;;;;12.10;100.00;100417.41;6919799;20;7599;-54
2021/09/30 04:57:36;;;;;;;;;;;;;;;11.88;100.00;100419.56;7324482;19;1005078;-54
2021/09/30 05:00:04;;;;;;;;;;;;;;;11.76;100.00;100419.25;7412639;19;12557;-52
2021/09/30 05:03:03;;;;;;;;;37.00;29.25;;;;;12.00;100.00;100427.81;6754157;19;3624141;-53
2021/09/30 05:05:31;;;;;;;;;32.67;30.67;;;;;11.95;100.00;100427.19;6783890;19;3600167;-48
2021/09/30 05:08:01;;;;;;;;;29.00;27.33;;;;;11.78;100.00;100422.72;6775481;19;3592912;-52
2021/09/30 05:10:32;;;;;;;;;31.67;30.33;;;;;11.98;100.00;100421.66;6816984;19;3603271;-47
2021/09/30 05:13:07;;;;;;;;;36.00;34.00;;;;;11.80;100.00;100420.81;6783005;19;3614786;-48
2021/09/30 05:15:37;;;;;;;;;32.67;29.33;;;;;11.68;100.00;100420.63;6774669;19;3612631;-50
2021/09/30 05:18:07;;;;;;;;;32.67;31.33;;;;;11.62;100.00;100425.38;6810080;19;2843017;-51
2021/09/30 05:20:35;;;;;;;;;40.67;36.00;;;;;11.79;100.00;100423.59;6816601;19;3567853;-50
2021/09/30 05:23:04;;;;;;;;;36.00;32.00;;;;;12.21;100.00;100431.13;6813610;19;2727313;-51
2021/09/30 05:32:51;;;;;;;;;35.38;30.88;;;;;11.72;100.00;100438.34;6253780;20;3589255;-53
2021/09/30 05:35:20;;;;;;;;;32.67;30.67;;;;;11.99;100.00;100434.16;6309567;20;3609665;-49
2021/09/30 05:37:48;;;;;;;;;40.67;33.67;;;;;11.89;100.00;100434.75;6287515;20;3594094;-52
2021/09/30 05:40:19;;;;;;;;;34.00;32.67;;;;;11.88;100.00;100438.41;6308551;20;3611901;-47
2021/09/30 05:42:47;;;;;;;;;34.33;32.33;;;;;11.82;100.00;100436.88;6310102;20;3591933;-51
2021/09/30 05:45:17;;;;;;;;;37.00;34.00;;;;;11.76;100.00;100450.66;6307032;20;3594996;-49
2021/09/30 05:47:47;;;;;;;;;38.33;33.00;;;;;11.87;100.00;100450.97;6346282;20;3598153;-49
2021/09/30 05:50:19;;;;;;;;;44.33;34.67;;;;;11.86;100.00;100443.88;6307279;20;2852352;-51
2021/09/30 05:52:47;;;;;;;;;44.67;35.00;;;;;11.78;100.00;100459.53;6342026;20;3615853;-49
2021/09/30 05:55:16;;;;;;;;;40.33;35.33;;;;;12.03;100.00;100454.59;6305653;20;3594998;-50
2021/09/30 05:57:45;;;;;;;;;28.00;27.33;;;;;12.04;100.00;100460.81;6309963;20;3593968;-52
2021/09/30 06:11:01;;;;;;;;;43.67;35.33;;;;;11.91;100.00;100492.91;6308145;20;3608620;-51
2021/09/30 06:13:35;;;;;;;;;42.00;36.00;;;;;11.92;100.00;100489.25;6341560;20;2672174;-52
2021/09/30 06:16:09;;;;;;;;;43.33;35.67;;;;;11.77;100.00;100481.97;6336425;20;3623130;-50
2021/09/30 06:18:38;;;;;;;;;38.67;34.00;;;;;11.61;100.00;100479.25;6324671;20;3574293;-49
2021/09/30 06:21:09;;;;;;;;;35.33;32.00;;;;;11.55;100.00;100480.44;6292040;20;2848304;-49
2021/09/30 06:23:39;;;;;;;;;44.33;36.33;;;;;11.74;100.00;100476.78;6334882;20;3595074;-51
2021/09/30 06:26:08;;;;;;;;;44.67;35.67;;;;;11.69;100.00;100482.41;6292112;20;3611687;-50
2021/09/30 06:28:37;;;;;;;;;43.33;35.33;;;;;12.04;100.00;100475.16;6299188;20;3621132;-52
2021/09/30 06:31:07;;;;;;;;;41.67;35.00;;;;;11.97;100.00;100487.19;6299268;20;3612944;-49
2021/09/30 06:33:37;;;;;;;;;36.67;29.33;;;;;11.97;100.00;100492.56;6301402;20;3621134;-52
2021/09/30 06:36:06;;;;;;;;;39.33;34.67;;;;;12.02;100.00;100489.66;6309842;20;3591988;-51
2021/09/30 06:38:41;;;;;;;;;38.67;34.00;;;;;12.08;100.00;100500.97;6308238;20;2853501;-49
2021/09/30 06:41:10;;;;;;;;;46.33;34.67;;;;;12.14;100.00;100504.25;6341043;20;3604439;-48
2021/09/30 06:43:39;;;;;;;;;39.00;35.00;;;;;11.94;100.00;100495.44;6295816;20;3580419;-51
2021/09/30 06:46:07;;;;;;;;;43.67;37.67;;;;;12.23;100.00;100503.75;6290590;20;3581506;-48
2021/09/30 06:48:36;;;;;;;;;41.00;35.67;;;;;12.03;100.00;100499.44;6281963;20;3606487;-49
2021/09/30 06:51:06;;;;;;;;;36.00;32.67;;;;;12.33;100.00;100494.22;6288067;20;3579407;-50
2021/09/30 06:53:34;;;;;;;;;44.00;34.00;;;;;12.15;100.00;100496.09;6286514;20;3610626;-48
2021/09/30 06:56:09;;;;;;;;;33.33;29.67;;;;;12.21;100.00;100497.56;6285514;20;3600237;-50
2021/09/30 06:59:04;;;;;;;;;38.33;33.33;;;;;12.20;100.00;100498.53;6313786;20;2854414;-51
2021/09/30 07:01:35;;;;;;;;;33.33;30.00;;;;;12.53;100.00;100509.22;6317435;20;3610747;-51
2021/09/30 07:04:07;;;;;;;;;37.33;33.67;;;;;12.19;100.00;100510.25;6285104;20;3591884;-49
2021/09/30 07:06:36;;;;;;;;;36.67;33.00;;;;;12.38;100.00;100513.66;6317319;20;3596051;-51
2021/09/30 07:09:05;;;;;;;;;43.00;37.33;;;;;12.21;100.00;100517.28;6286817;20;3598141;-53
2021/09/30 07:11:34;;;;;;;;;39.33;34.67;;;;;12.18;100.00;100512.06;6285334;20;3581660;-51
2021/09/30 07:14:04;;;;;;;;;45.67;35.33;;;;;12.21;100.00;100521.81;6284294;20;3606462;-48
2021/09/30 07:16:33;;;;;;;;;33.33;31.33;;;;;12.25;100.00;100523.38;6316103;20;3612826;-49
2021/09/30 07:19:03;;;;;;;;;35.67;33.33;;;;;12.21;100.00;100521.81;6283084;20;3590987;-49
2021/09/30 07:21:33;;;;;;;;;38.00;32.00;;;;;12.24;100.00;100527.91;6318596;20;3603376;-51
2021/09/30 07:24:02;;;;;;;;;34.67;29.67;;;;;12.15;100.00;100527.53;6288839;20;3606504;-51
2021/09/30 07:26:31;;;;;;;;;43.67;33.67;;;;;12.25;100.00;100524.25;6287568;20;3603411;-51
2021/09/30 07:28:59;;;;;;;;;36.33;33.00;;;;;12.24;100.00;100535.09;6284757;20;3598169;-49
2021/09/30 07:31:28;;;;;;;;;36.33;34.00;;;;;12.47;100.00;100532.00;6285660;20;3603492;-47
2021/09/30 07:33:57;;;;;;;;;33.00;29.67;;;;;12.40;100.00;100536.00;6284678;20;3613332;-50
2021/09/30 07:36:26;;;;;;;;;35.67;33.00;;;;;12.28;100.00;100544.75;6286952;20;3583670;-51
2021/09/30 07:38:55;;;;;;;;;37.33;32.33;;;;;12.38;100.00;100551.38;6280725;20;3613786;-47
2021/09/30 07:41:24;;;;;;;;;37.00;33.67;;;;;12.47;100.00;100549.97;6317878;20;3586806;-49
2021/09/30 07:43:54;;;;;;;;;43.33;34.67;;;;;12.36;100.00;100549.72;6283669;20;3583584;-52
2021/09/30 07:46:22;;;;;;;;;35.67;33.67;;;;;12.41;100.00;100556.59;6316302;20;3573196;-49
2021/09/30 07:48:51;;;;;;;;;37.33;33.33;;;;;12.33;100.00;100553.44;6316417;20;3602496;-52
2021/09/30 07:51:19;;;;;;;;;37.67;33.67;;;;;12.30;100.00;100553.63;6287718;20;3600254;-48
2021/09/30 07:53:49;;;;;;;;;35.00;32.00;;;;;12.54;100.00;100556.78;6281603;20;3600339;-48
2021/09/30 07:56:18;;;;;;;;;37.67;34.00;;;;;12.79;100.00;100564.34;6315755;20;3605504;-47
2021/09/30 07:58:48;;;;;;;;;44.00;36.00;;;;;12.56;100.00;100564.75;6281457;20;2853358;-48
2021/09/30 08:01:20;;;;;;;;;47.33;38.00;;;;;12.41;100.00;100567.34;6316010;20;3600338;-49
2021/09/30 08:03:50;;;;;;;;;47.50;36.00;;;;;12.30;100.00;100564.41;6319454;20;3570078;-48
2021/09/30 08:06:20;;;;;;;;;43.50;37.00;;;;;12.59;100.00;100559.22;6282512;20;2845051;-50
2021/09/30 08:08:56;;;;;;;;;37.33;32.00;;;;;12.37;100.00;100563.09;6285238;20;3600215;-47
2021/09/30 08:11:27;;;;;;;;;39.67;34.33;;;;;12.34;100.00;100571.34;6283596;20;3604428;-53
2021/09/30 08:13:56;;;;;;;;;37.67;32.33;;;;;12.61;100.00;100573.44;6284013;20;3610676;-50
2021/09/30 08:16:27;;;;;;;;;35.00;31.75;;;;;12.23;100.00;100579.13;6283538;20;3614803;-48
2021/09/30 08:19:01;;;;;;;;;36.67;32.00;;;;;12.42;100.00;100574.47;6315413;20;3584637;-47
2021/09/30 08:21:30;;;;;;;;;31.67;31.67;;;;;12.27;100.00;100569.94;6285953;20;3602372;-48
2021/09/30 08:23:59;;;;;;;;;37.33;33.67;;;;;12.26;100.00;100570.88;6285736;20;3565853;-52
2021/09/30 08:26:29;;;;;;;;;37.67;33.00;;;;;12.36;100.00;100573.94;6281878;20;3614996;-48
2021/09/30 08:28:57;;;;;;;;;37.33;34.33;;;;;12.50;100.00;100587.53;6284068;20;3585638;-48
2021/09/30 08:31:26;;;;;;;;;34.00;31.00;;;;;12.35;100.00;100578.47;6281385;20;3590912;-49
2021/09/30 08:33:58;;;;;;;;;36.00;32.67;;;;;12.56;100.00;100575.53;6285978;20;3605561;-48
2021/09/30 08:36:27;;;;;;;;;34.00;31.67;;;;;12.40;100.00;100579.09;6285505;20;3587773;-49
2021/09/30 08:38:57;;;;;;;;;34.67;32.33;;;;;12.54;100.00;100580.16;6278674;20;3610794;-48
2021/09/30 08:41:28;;;;;;;;;36.75;32.75;;;;;12.40;100.00;100581.78;6313203;20;3624252;-49
2021/09/30 08:43:58;;;;;;;;;33.50;31.50;;;;;12.41;100.00;100580.81;6313276;20;3621118;-48
2021/09/30 08:46:27;;;;;;;;;36.00;31.67;;;;;12.47;100.00;100583.16;6313998;20;3595035;-50
2021/09/30 08:48:57;;;;;;;;;34.00;30.50;;;;;12.60;100.00;100585.19;6282857;20;3616883;-50
2021/09/30 08:51:27;;;;;;;;;37.50;28.25;;;;;12.59;100.00;100575.38;6317615;20;3626284;-52
2021/09/30 08:53:55;;;;;;;;;28.00;28.00;;;;;12.49;100.00;100581.25;6311937;20;3583536;-51
2021/09/30 08:56:25;;;;;;;;;30.00;24.67;;;;;12.55;100.00;100577.34;6281836;20;2834803;-51
2021/09/30 08:58:54;;;;;;;;;24.33;22.33;;;;;12.60;100.00;100582.50;6313774;20;3583639;-48
2021/09/30 09:01:22;;;;;;;;;22.00;21.00;;;;;12.70;100.00;100579.22;6283694;20;2839875;-48
2021/09/30 09:03:51;;;;;;;;;26.50;26.50;;;;;12.58;100.00;100584.41;6283234;20;2847279;-50
2021/09/30 09:06:35;;;;;;;;;24.00;22.50;;;;;12.78;100.00;100581.47;6280697;20;2850368;-51
2021/09/30 09:09:27;;;;;;;;;28.00;26.50;;;;;12.88;100.00;100588.09;6281245;20;2848171;-51
2021/09/30 09:12:09;;;;;;;;;24.50;23.00;;;;;12.86;100.00;100583.75;6282765;20;2841299;-47
2021/09/30 09:14:40;;;;;;;;;22.67;22.00;;;;;12.94;100.00;100593.13;6277986;20;2842007;-51
2021/09/30 09:17:16;;;;;;;;;24.00;20.00;;;;;13.04;100.00;100587.22;6311161;20;2841916;-50
2021/09/30 09:19:54;;;;;;;;;20.67;20.33;;;;;12.77;100.00;100590.53;6282606;20;3578390;-48
2021/09/30 09:22:35;;;;;;;;;25.00;23.50;;;;;12.98;100.00;100598.31;6282013;20;2835747;-50
2021/09/30 09:25:14;;;;;;;;;25.00;22.00;;;;;12.98;100.00;100601.03;6281911;20;2843076;-53
2021/09/30 09:27:58;;;;;;;;;25.00;22.67;;;;;13.15;100.00;100599.09;6284237;20;3571095;-50
2021/09/30 09:30:46;;;;;;;;;23.67;22.00;;;;;13.11;100.00;100596.66;6316883;20;3580473;-50
2021/09/30 09:33:24;;;;;;;;;24.00;24.00;;;;;13.28;100.00;100603.84;6279623;20;2839951;-52
2021/09/30 09:36:03;;;;;;;;;20.00;20.00;;;;;13.22;100.00;100596.94;6279820;20;2826556;-50
2021/09/30 09:38:47;;;;;;;;;29.00;27.00;;;;;13.32;100.00;100603.56;6283737;20;3584747;-51
2021/09/30 09:41:35;;;;;;;;;29.33;29.33;;;;;13.45;100.00;100602.84;6277658;20;2849230;-51
2021/09/30 09:44:07;;;;;;;;;27.67;25.00;;;;;13.57;100.00;100599.44;6314799;20;3571085;-50
2021/09/30 09:46:40;;;;;;;;;33.33;29.00;;;;;13.70;100.00;100599.56;6282960;20;3602295;-51
2021/09/30 09:49:14;;;;;;;;;31.33;28.00;;;;;13.75;100.00;100605.56;6311201;20;3621441;-50
2021/09/30 09:51:48;;;;;;;;;37.00;32.33;;;;;13.68;100.00;100610.44;6284161;20;3601325;-50
2021/09/30 09:54:26;;;;;;;;;39.33;34.67;;;;;13.73;100.00;100602.06;6284725;20;3596048;-47
2021/09/30 09:57:10;;;;;;;;;37.00;32.67;;;;;13.82;100.00;100602.41;6280404;20;3595162;-49
2021/09/30 09:59:42;;;;;;;;;39.67;33.33;;;;;13.94;100.00;100608.88;6281713;20;2847246;-50
2021/09/30 10:02:30;;;;;;;;;42.67;37.00;;;;;13.88;100.00;100606.56;6313648;20;3574237;-48
2021/09/30 10:05:01;;;;;;;;;47.00;37.00;;;;;14.00;100.00;100610.31;6280808;20;3607525;-51
2021/09/30 10:07:32;;;;;;;;;41.33;35.00;;;;;13.88;100.00;100606.56;6312070;20;3613767;-49
2021/09/30 10:10:01;;;;;;;;;40.33;35.00;;;;;13.75;100.00;100605.56;6279187;20;3584708;-48
2021/09/30 10:12:30;;;;;;;;;42.00;35.33;;;;;13.91;100.00;100610.91;6282921;20;3579393;-50
2021/09/30 10:15:00;;;;;;;;;41.00;35.00;;;;;13.94;100.00;100618.81;6278806;20;2840909;-50
2021/09/30 10:17:29;;;;;;;;;40.33;33.33;;;;;14.13;100.00;100622.09;6280575;20;3607498;-51
2021/09/30 10:19:58;;;;;;;;;43.00;35.00;;;;;14.31;100.00;100619.25;6287703;20;3602301;-48
2021/09/30 10:22:28;;;;;;;;;36.00;32.67;;;;;14.32;100.00;100620.97;6284367;20;2851394;-49
2021/09/30 10:24:57;;;;;;;;;42.33;36.33;;;;;14.15;100.00;100620.19;6318257;20;3599321;-47
2021/09/30 10:27:27;;;;;;;;;42.67;37.67;;;;;14.33;100.00;100620.91;6280957;20;2852369;-50
2021/09/30 10:29:56;;;;;;;;;40.00;33.67;;;;;14.25;100.00;100617.81;6318823;20;3586752;-47
2021/09/30 10:32:26;;;;;;;;;45.00;37.00;;;;;14.37;100.00;100617.03;6280524;20;2850475;-49
2021/09/30 10:34:59;;;;;;;;;45.33;36.67;;;;;14.47;100.00;100625.44;6314900;20;3591896;-48
2021/09/30 10:37:32;;;;;;;;;49.33;41.67;;;;;14.38;100.00;100616.06;6283669;20;3610692;-49
2021/09/30 10:40:23;;;;;;;;;51.67;42.00;;;;;14.59;100.00;100619.28;6320136;20;3614842;-50
2021/09/30 10:42:56;;;;;;;;;50.00;38.33;;;;;14.63;100.00;100622.66;6287764;20;3608675;-50
2021/09/30 10:45:40;;;;;;;;;45.00;37.67;;;;;14.69;100.00;100617.75;6287059;20;3599208;-50
2021/09/30 10:48:28;;;;;;;;;46.67;38.00;;;;;14.70;100.00;100614.06;6284134;20;3591882;-47
2021/09/30 10:51:00;;;;;;;;;46.67;38.33;;;;;14.78;100.00;100620.81;6318016;20;3590867;-52
2021/09/30 10:53:47;;;;;;;;;48.00;39.33;;;;;14.75;100.00;100618.31;6285205;20;3590928;-50
2021/09/30 10:56:30;;;;;;;;;54.67;42.67;;;;;14.90;100.00;100612.78;6286587;20;3631490;-47
2021/09/30 10:59:08;;;;;;;;;49.00;42.00;;;;;15.02;100.00;100611.13;6316931;20;3584726;-50
2021/09/30 11:01:47;;;;;;;;;54.67;44.00;;;;;15.03;100.00;100612.84;6283969;20;3615853;-48
2021/09/30 11:04:18;;;;;;;;;49.33;39.67;;;;;15.06;100.00;100607.25;6320449;20;3607519;-51
2021/09/30 11:07:15;;;;;;;;;46.67;38.67;;;;;15.14;100.00;100613.03;6290173;20;3578372;-49
2021/09/30 11:10:22;;;;;;;;;47.00;40.00;;;;;15.13;100.00;100611.28;6281612;20;3601355;-53
2021/09/30 11:13:22;;;;;;;;;39.67;33.67;;;;;15.31;100.00;100611.91;6317365;20;3605437;-51
2021/09/30 11:16:36;;;;;;;;;35.00;30.00;;;;;15.31;100.00;100614.59;6287291;20;3597206;-50
2021/09/30 11:19:21;;;;;;;;;29.00;29.00;;;;;15.30;100.00;100612.00;6286155;20;3592115;-50
2021/09/30 11:22:00;;;;;;;;;23.63;22.63;;;;;15.28;100.00;100608.53;6306956;20;3571083;-51
2021/09/30 11:24:54;;;;;;;;;25.00;22.00;;;;;15.12;100.00;100606.84;6284305;20;2825388;-48
2021/09/30 11:27:31;;;;;;;;;21.50;19.50;;;;;15.08;100.00;100610.69;6284621;20;2846141;-49
2021/09/30 11:30:24;;;;;;;;;21.00;20.00;;;;;15.03;100.00;100615.53;6286691;20;3583554;-50
2021/09/30 11:32:59;;;;;;;;;17.50;16.00;;;;;15.28;100.00;100613.94;6282917;20;2483732;-51
2021/09/30 11:35:28;;;;;;;;;18.00;17.00;;;;;15.18;100.00;100612.81;6283261;20;2833612;-49
2021/09/30 11:37:57;;;;;;;;;15.67;15.67;;;;;15.01;100.00;100613.91;6284971;20;3559610;-50
2021/09/30 11:40:25;;;;;;;;;16.00;13.00;;;;;15.24;100.00;100615.97;6287023;20;2805530;-50
2021/09/30 11:42:55;;;;;;;;;17.00;16.50;;;;;15.08;100.00;100612.53;6283086;20;2829469;-49
2021/09/30 11:45:29;;;;;;;;;17.67;17.67;;;;;15.06;100.00;100618.06;6284743;20;2833631;-49
2021/09/30 11:48:06;;;;;;;;;10.00;8.00;;;;;15.07;100.00;100614.38;6357485;20;3487731;-47
2021/09/30 11:50:35;;;;;;;;;7.00;7.00;;;;;15.01;100.00;100617.50;6317552;20;2737796;-50
2021/09/30 11:53:10;;;;;;;;;8.50;6.00;;;;;14.44;100.00;100623.78;6288644;20;2744463;-50
2021/09/30 11:55:41;;;;;;;;;4.00;4.00;;;;;14.60;100.00;100623.72;6287196;20;2742963;-52
2021/09/30 11:58:13;;;;;;;;;3.00;3.00;;;;;14.68;100.00;100617.81;6285570;20;2739918;-48
2021/09/30 12:00:47;;;;;;;;;5.00;5.00;;;;;14.52;100.00;100623.31;6289506;20;2745057;-49
2021/09/30 12:03:20;;;;;;;;;6.50;5.00;;;;;14.62;100.00;100621.78;6288612;20;2747624;-47
2021/09/30 12:05:54;;;;;;;;;6.00;5.20;;;;;14.54;100.00;100626.81;6311848;20;2739899;-48
2021/09/30 12:08:22;;;;;;;;;5.00;5.00;;;;;14.47;100.00;100622.72;6313214;20;2753357;-48
2021/09/30 12:11:01;;;;;;;;;9.00;7.50;;;;;14.64;100.00;100622.56;6288812;20;2739896;-52
2021/09/30 12:13:28;;;;;;;;;6.50;6.50;;;;;14.45;100.00;100617.41;6289040;20;2744026;-49
2021/09/30 12:16:04;;;;;;;;;6.00;6.00;;;;;14.08;100.00;100621.53;6286347;20;2744091;-48
2021/09/30 12:18:32;;;;;;;;;15.00;13.00;;;;;14.40;100.00;100618.66;6288148;20;2787752;-47
2021/09/30 12:21:01;;;;;;;;;4.00;4.00;;;;;14.63;100.00;100626.22;6286737;20;2751301;-53
2021/09/30 12:23:29;;;;;;;;;9.50;7.00;;;;;14.40;100.00;100624.97;6286511;20;2758607;-51
2021/09/30 12:26:00;;;;;;;;;8.50;6.00;;;;;14.36;100.00;100623.41;6282507;20;2746081;-50
2021/09/30 12:28:29;;;;;;;;;8.50;7.00;;;;;14.31;100.00;100624.66;6283659;20;2746157;-50
2021/09/30 12:31:05;;;;;;;;;7.00;7.00;;;;;14.07;100.00;100621.63;6285139;20;2746074;-51
2021/09/30 12:33:34;;;;;;;;;11.00;10.33;;;;;14.11;100.00;100623.16;6281727;20;3515859;-47
2021/09/30 12:36:06;;;;;;;;;26.00;26.00;;;;;14.13;100.00;100621.25;6314542;20;3583583;-48
2021/09/30 12:38:35;;;;;;;;;9.00;9.00;;;;;14.26;100.00;100617.69;6283608;20;2750271;-50
2021/09/30 12:41:05;;;;;;;;;9.33;9.33;;;;;14.21;100.00;100624.34;6283409;20;3481555;-49
2021/09/30 12:43:38;;;;;;;;;6.80;5.20;;;;;13.90;100.00;100619.94;6340091;20;2748628;-52
2021/09/30 12:46:11;;;;;;;;;8.33;7.67;;;;;14.09;100.00;100615.19;6359270;20;3466925;-50
2021/09/30 12:48:41;;;;;;;;;7.40;7.00;;;;;13.99;100.00;100614.88;6336305;20;2751490;-53
2021/09/30 12:51:14;;;;;;;;;21.33;19.67;;;;;14.27;100.00;100614.03;6312825;20;3568020;-48
2021/09/30 12:53:50;;;;;;;;;18.00;16.67;;;;;14.27;100.00;100614.03;6280411;20;3548154;-49
2021/09/30 12:56:33;;;;;;;;;202.50;182.00;;;;;14.37;100.00;100608.91;6270718;20;1952903;-47
2021/09/30 12:59:16;;;;;;;;;50.00;40.50;;;;;14.42;100.00;100605.94;6283760;20;3603352;-51
2021/09/30 13:01:45;;;;;;;;;27.33;25.67;;;;;14.50;100.00;100609.00;6314459;20;3592134;-50
2021/09/30 13:04:25;;;;;;;;;16.00;16.00;;;;;14.54;100.00;100607.03;6276412;20;2812878;-50
2021/09/30 13:07:06;;;;;;;;;25.00;21.00;;;;;14.50;100.00;100609.00;6280148;20;2846847;-51
2021/09/30 13:09:38;;;;;;;;;77.50;57.00;;;;;14.43;100.00;100607.69;6278799;20;1923319;-49
2021/09/30 13:12:14;;;;;;;;;36.50;28.50;;;;;14.63;100.00;100614.53;6284703;20;3608619;-52
2021/09/30 13:14:49;;;;;;;;;13.00;12.00;;;;;14.50;100.00;100606.31;6315830;20;2794113;-50
2021/09/30 13:17:26;;;;;;;;;48.67;36.33;;;;;14.57;100.00;100610.41;6278870;20;3620081;-50
2021/09/30 13:20:06;;;;;;;;;23.33;20.67;;;;;14.55;100.00;100601.53;6314051;20;3578383;-50
2021/09/30 13:22:46;;;;;;;;;17.00;11.50;;;;;14.64;100.00;100606.34;6282840;20;2799371;-50
2021/09/30 13:25:19;;;;;;;;;19.50;17.00;;;;;14.62;100.00;100608.28;6278057;20;2492137;-51
2021/09/30 13:27:51;;;;;;;;;19.00;14.00;;;;;14.65;100.00;100608.09;6278397;20;3536859;-50
2021/09/30 13:30:35;;;;;;;;;37.33;34.33;;;;;14.39;100.00;100606.13;6283318;20;3599495;-48
2021/09/30 13:33:06;;;;;;;;;48.33;36.67;;;;;14.55;100.00;100606.94;6281500;20;3599304;-50
2021/09/30 13:35:35;;;;;;;;;65.25;50.75;;;;;14.56;100.00;100611.38;6312844;20;3616910;-50
2021/09/30 13:38:03;;;;;;;;;18.50;15.00;;;;;14.60;100.00;100610.22;6311016;20;2481526;-51
2021/09/30 13:40:31;;;;;;;;;15.00;14.00;;;;;14.61;100.00;100601.16;6287058;20;2790945;-51
2021/09/30 13:43:01;;;;;;;;;17.00;17.00;;;;;14.72;100.00;100603.16;6278280;20;2500245;-54
2021/09/30 13:45:31;;;;;;;;;23.50;17.17;;;;;14.57;100.00;100610.41;6256299;20;3586673;-51
2021/09/30 13:47:59;;;;;;;;;14.50;14.50;;;;;14.63;100.00;100601.03;6284380;20;2794059;-49
2021/09/30 13:50:28;;;;;;;;;32.00;30.00;;;;;14.73;100.00;100601.31;6282020;20;3586803;-54
2021/09/30 13:52:58;;;;;;;;;54.33;43.67;;;;;14.70;100.00;100608.66;6282832;20;2853415;-51
2021/09/30 13:55:26;;;;;;;;;16.00;14.00;;;;;14.68;100.00;100601.59;6319801;20;3531521;-52
2021/09/30 13:57:55;;;;;;;;;36.33;30.67;;;;;14.63;100.00;100606.44;6318851;20;3610777;-50
2021/09/30 14:00:26;;;;;;;;;22.00;18.13;;;;;14.62;100.00;100612.81;6257174;20;3567024;-51
2021/09/30 14:02:56;;;;;;;;;29.67;27.00;;;;;14.70;100.00;100603.25;6283002;20;3601316;-49
2021/09/30 14:05:24;;;;;;;;;28.00;25.33;;;;;14.64;100.00;100608.16;6320235;20;3596142;-53
2021/09/30 14:07:53;;;;;;;;;30.33;25.00;;;;;14.50;100.00;100601.78;6285165;20;3597187;-50
2021/09/30 14:10:24;;;;;;;;;38.33;31.00;;;;;14.68;100.00;100607.88;6289153;20;3600241;-50
2021/09/30 14:12:54;;;;;;;;;37.67;33.33;;;;;14.72;100.00;100600.47;6285926;20;3603376;-52
2021/09/30 14:15:24;;;;;;;;;40.67;33.33;;;;;14.70;100.00;100602.38;6317711;20;3606692;-48
2021/09/30 14:17:54;;;;;;;;;34.00;31.00;;;;;14.63;100.00;100599.19;6281859;20;3606740;-50
2021/09/30 14:20:23;;;;;;;;;30.00;29.33;;;;;14.71;100.00;100587.88;6318819;20;3580445;-45
2021/09/30 14:22:51;;;;;;;;;37.67;32.67;;;;;14.67;100.00;100595.34;6286947;20;3596061;-43